Terminal Aerodrome Forecast
Issued by NWS Wilmington, OH

Home | Current Version | Previous Version | Text Only | Print | Product List | Glossary On
Versions: 1 2 3 4 5 6 7 8 9 10 11 12
000
FTUS41 KILN 250533
TAFILN
TAF
KILN 250533Z 2506/2606 07003KT P6SM SCT250
     FM251700 12004KT P6SM SCT060 BKN250
     FM260000 00000KT P6SM SCT250=

USA.gov is the U.S. government's official web portal to all federal, state and local government web resources and services.